createdAt,value
2023-01-29T00:01:07.601Z,6.87
2023-01-29T00:02:09.150Z,6.80
2023-01-29T00:03:10.713Z,6.80
2023-01-29T00:04:12.042Z,7.00
2023-01-29T00:05:26.903Z,6.67
2023-01-29T00:06:29.055Z,6.83
2023-01-29T00:07:30.421Z,7.20
2023-01-29T00:08:33.464Z,7.50
2023-01-29T00:09:34.805Z,7.20
2023-01-29T00:10:36.148Z,6.90
2023-01-29T00:11:37.618Z,6.97
2023-01-29T00:12:39.101Z,7.43
2023-01-29T00:13:40.430Z,7.23
2023-01-29T00:14:41.779Z,6.70
2023-01-29T00:15:43.392Z,6.60
2023-01-29T00:16:44.734Z,7.07
2023-01-29T00:17:46.101Z,7.13
2023-01-29T00:18:47.422Z,7.20
2023-01-29T00:19:48.797Z,6.93
2023-01-29T00:20:50.190Z,6.20
2023-01-29T00:21:51.551Z,7.33
2023-01-29T00:22:52.949Z,7.53
2023-01-29T00:23:55.107Z,7.07
2023-01-29T00:24:56.423Z,7.10
2023-01-29T00:25:59.532Z,7.53
2023-01-29T00:27:00.915Z,7.33
2023-01-29T00:28:02.291Z,7.13
2023-01-29T00:29:03.689Z,7.40
2023-01-29T00:30:19.346Z,7.27
2023-01-29T00:31:22.132Z,7.67
2023-01-29T00:32:23.511Z,7.13
2023-01-29T00:33:25.178Z,7.30
2023-01-29T00:34:26.912Z,6.97
2023-01-29T00:35:28.239Z,7.37
2023-01-29T00:36:29.587Z,6.83
2023-01-29T00:37:30.934Z,6.83
2023-01-29T00:38:32.941Z,7.27
2023-01-29T00:39:47.462Z,6.77
2023-01-29T00:41:08.150Z,7.10
2023-01-29T00:42:28.043Z,6.90
2023-01-29T00:43:47.652Z,6.57
2023-01-29T00:44:57.729Z,7.13
2023-01-29T00:45:59.080Z,6.77
2023-01-29T00:47:00.770Z,6.47
2023-01-29T00:48:02.668Z,6.63
2023-01-29T00:49:04.851Z,7.03
2023-01-29T00:50:07.823Z,6.87
2023-01-29T00:51:09.179Z,6.77
2023-01-29T00:52:25.784Z,7.30
2023-01-29T00:53:27.591Z,7.40
2023-01-29T00:54:29.152Z,6.97
2023-01-29T00:55:30.503Z,7.27
2023-01-29T00:56:32.220Z,6.67
2023-01-29T00:57:34.546Z,6.90
2023-01-29T00:58:35.877Z,6.30
2023-01-29T00:59:37.223Z,6.90
2023-01-29T01:00:38.705Z,7.07
2023-01-29T01:01:59.010Z,7.00
2023-01-29T01:03:06.357Z,6.80
2023-01-29T01:04:08.556Z,6.90
2023-01-29T01:05:14.176Z,6.93
2023-01-29T01:06:15.581Z,7.00
2023-01-29T01:07:16.953Z,6.63
2023-01-29T01:08:36.990Z,7.07
2023-01-29T01:09:56.633Z,7.57
2023-01-29T01:11:01.732Z,7.07
2023-01-29T01:12:03.055Z,7.67
2023-01-29T01:13:05.286Z,6.73
2023-01-29T01:14:06.703Z,6.80
2023-01-29T01:15:08.205Z,6.80
2023-01-29T01:16:13.821Z,6.33
2023-01-29T01:17:15.559Z,6.50
2023-01-29T01:18:16.920Z,5.70
2023-01-29T01:19:18.316Z,5.83
2023-01-29T01:20:20.310Z,5.90
2023-01-29T01:21:21.630Z,6.23
2023-01-29T01:22:22.950Z,6.40
2023-01-29T01:23:24.316Z,7.03
2023-01-29T01:24:25.709Z,7.43
2023-01-29T01:25:27.232Z,7.27
2023-01-29T01:26:30.309Z,7.40
2023-01-29T01:27:34.950Z,7.70
2023-01-29T01:28:36.374Z,7.67
2023-01-29T01:29:37.941Z,7.90
2023-01-29T01:30:39.411Z,8.40
2023-01-29T01:31:40.837Z,8.67
2023-01-29T01:32:42.475Z,7.13
2023-01-29T01:33:43.819Z,6.97
2023-01-29T01:34:45.342Z,6.87
2023-01-29T01:35:47.906Z,7.23
2023-01-29T01:36:49.420Z,6.13
2023-01-29T01:37:50.774Z,5.70
2023-01-29T01:38:52.186Z,5.30
2023-01-29T01:39:57.738Z,5.20
2023-01-29T01:40:59.100Z,4.83
2023-01-29T01:42:00.807Z,5.00
2023-01-29T01:43:02.473Z,5.70
2023-01-29T01:44:04.961Z,5.40
2023-01-29T01:45:08.044Z,5.33
2023-01-29T01:46:09.721Z,5.67
2023-01-29T01:47:11.115Z,6.77
2023-01-29T01:48:18.629Z,6.27
2023-01-29T01:49:21.629Z,5.40
2023-01-29T01:50:31.149Z,5.17
2023-01-29T01:51:33.990Z,5.10
2023-01-29T01:52:37.324Z,5.23
2023-01-29T01:53:44.807Z,6.10
2023-01-29T01:54:46.172Z,5.60
2023-01-29T01:55:50.502Z,5.53
2023-01-29T01:56:55.410Z,6.00
2023-01-29T01:58:00.077Z,5.07
2023-01-29T01:59:01.487Z,5.37
2023-01-29T02:00:10.945Z,5.30
2023-01-29T02:01:15.058Z,6.03
2023-01-29T02:02:36.067Z,5.70
2023-01-29T02:03:57.962Z,6.40
2023-01-29T02:05:18.397Z,6.47
2023-01-29T02:06:38.242Z,6.97
2023-01-29T02:08:06.274Z,6.03
2023-01-29T02:09:38.708Z,6.43
2023-01-29T02:10:43.773Z,6.03
2023-01-29T02:11:45.211Z,6.47
2023-01-29T02:12:47.068Z,6.73
2023-01-29T02:13:53.605Z,6.13
2023-01-29T02:15:00.007Z,6.40
2023-01-29T02:16:01.330Z,5.70
2023-01-29T02:17:02.749Z,5.40
2023-01-29T02:18:04.168Z,6.00
2023-01-29T02:19:07.015Z,5.17
2023-01-29T02:20:28.674Z,5.37
2023-01-29T02:21:29.972Z,5.70
2023-01-29T02:22:31.251Z,5.50
2023-01-29T02:23:32.545Z,5.60
2023-01-29T02:24:43.049Z,6.20
2023-01-29T02:25:44.471Z,5.57
2023-01-29T02:27:04.639Z,5.57
2023-01-29T02:28:05.997Z,6.00
2023-01-29T02:29:30.460Z,5.77
2023-01-29T02:30:34.800Z,5.77
2023-01-29T02:31:44.898Z,5.70
2023-01-29T02:32:58.546Z,6.17
2023-01-29T02:34:57.262Z,5.73
2023-01-29T02:36:04.349Z,6.50
2023-01-29T02:37:10.381Z,6.60
2023-01-29T02:38:22.772Z,6.00
2023-01-29T02:39:32.903Z,7.23
2023-01-29T02:40:39.792Z,6.13
2023-01-29T02:41:48.663Z,6.73
2023-01-29T02:42:59.164Z,7.17
2023-01-29T02:44:07.966Z,6.57
2023-01-29T02:45:21.031Z,6.30
2023-01-29T02:46:40.298Z,6.60
2023-01-29T02:47:45.388Z,6.00
2023-01-29T02:48:59.261Z,6.10
2023-01-29T02:50:06.177Z,6.13
2023-01-29T02:51:33.468Z,5.87
2023-01-29T02:52:37.635Z,6.27
2023-01-29T02:53:50.376Z,6.10
2023-01-29T02:54:54.562Z,5.90
2023-01-29T02:56:03.445Z,5.90
2023-01-29T02:57:09.776Z,5.63
2023-01-29T02:58:17.882Z,6.00
2023-01-29T02:59:34.130Z,5.80
2023-01-29T03:00:38.016Z,6.10
2023-01-29T03:01:52.176Z,5.97
2023-01-29T03:02:56.336Z,5.63
2023-01-29T03:04:03.130Z,5.77
2023-01-29T03:05:08.400Z,6.10
2023-01-29T03:06:18.258Z,6.60
2023-01-29T03:07:42.815Z,5.93
2023-01-29T03:08:50.060Z,6.33
2023-01-29T03:09:53.466Z,6.03
2023-01-29T03:10:57.470Z,5.70
2023-01-29T03:12:03.016Z,5.90
2023-01-29T03:13:10.351Z,6.07
2023-01-29T03:14:14.705Z,5.97
2023-01-29T03:15:17.704Z,6.30
2023-01-29T03:16:44.812Z,6.03
2023-01-29T03:18:18.708Z,6.20
2023-01-29T03:19:31.806Z,6.17
2023-01-29T03:20:39.909Z,6.07
2023-01-29T03:21:59.320Z,6.27
2023-01-29T03:23:05.698Z,6.40
2023-01-29T03:24:27.939Z,6.90
2023-01-29T03:25:48.476Z,6.47
2023-01-29T03:27:10.852Z,6.77
2023-01-29T03:28:36.765Z,7.20
2023-01-29T03:29:57.444Z,7.03
2023-01-29T03:31:28.500Z,6.80
2023-01-29T03:32:31.977Z,6.60
2023-01-29T03:33:36.114Z,7.03
2023-01-29T03:34:43.525Z,6.13
2023-01-29T03:35:49.937Z,6.90
2023-01-29T03:37:03.758Z,6.50
2023-01-29T03:38:10.068Z,6.90
2023-01-29T03:39:12.159Z,6.93
2023-01-29T03:40:15.125Z,6.37
2023-01-29T03:41:22.491Z,7.07
2023-01-29T03:42:29.788Z,6.53
2023-01-29T03:43:34.423Z,6.90
2023-01-29T03:44:56.644Z,6.67
2023-01-29T03:46:08.537Z,7.17
2023-01-29T03:47:22.629Z,7.00
2023-01-29T03:48:31.024Z,6.60
2023-01-29T03:49:36.389Z,7.00
2023-01-29T03:50:45.263Z,7.83
2023-01-29T03:51:52.510Z,7.83
2023-01-29T03:52:53.842Z,7.63
2023-01-29T03:53:58.132Z,8.20
2023-01-29T03:55:13.179Z,8.43
2023-01-29T03:56:32.413Z,8.43
2023-01-29T03:57:39.613Z,7.27
2023-01-29T03:58:57.149Z,7.37
2023-01-29T04:00:04.513Z,7.53
2023-01-29T04:01:29.157Z,7.07
2023-01-29T04:02:33.723Z,6.90
2023-01-29T04:03:58.493Z,7.40
2023-01-29T04:05:02.037Z,6.63
2023-01-29T04:06:11.848Z,7.20
2023-01-29T04:07:24.813Z,7.03
2023-01-29T04:08:35.659Z,6.73
2023-01-29T04:09:51.978Z,7.17
2023-01-29T04:10:56.129Z,7.70
2023-01-29T04:12:00.821Z,7.07
2023-01-29T04:13:05.447Z,7.80
2023-01-29T04:14:07.327Z,7.23
2023-01-29T04:15:10.384Z,7.60
2023-01-29T04:16:14.531Z,7.57
2023-01-29T04:17:43.433Z,8.07
2023-01-29T04:18:50.808Z,6.90
2023-01-29T04:19:57.178Z,7.07
2023-01-29T04:20:59.716Z,8.07
2023-01-29T04:22:13.794Z,7.00
2023-01-29T04:23:23.215Z,7.03
2023-01-29T04:24:25.028Z,8.10
2023-01-29T04:25:28.971Z,8.03
2023-01-29T04:26:54.256Z,7.20
2023-01-29T04:27:55.630Z,7.80
2023-01-29T04:29:16.493Z,7.10
2023-01-29T04:30:26.153Z,7.77
2023-01-29T04:31:31.881Z,7.43
2023-01-29T04:32:42.173Z,6.97
2023-01-29T04:33:57.741Z,7.37
2023-01-29T04:35:09.321Z,7.70
2023-01-29T04:36:16.877Z,7.33
2023-01-29T04:37:27.629Z,7.20
2023-01-29T04:38:47.744Z,7.23
2023-01-29T04:39:53.340Z,7.43
2023-01-29T04:41:03.410Z,7.40
2023-01-29T04:42:36.994Z,7.07
2023-01-29T04:43:47.862Z,7.13
2023-01-29T04:44:59.028Z,7.47
2023-01-29T04:46:03.654Z,7.23
2023-01-29T04:47:22.057Z,7.17
2023-01-29T04:48:52.545Z,7.20
2023-01-29T04:50:12.452Z,7.23
2023-01-29T04:51:16.770Z,7.13
2023-01-29T04:52:31.327Z,7.50
2023-01-29T04:53:32.629Z,7.70
2023-01-29T04:54:49.337Z,7.20
2023-01-29T04:55:50.763Z,7.13
2023-01-29T04:56:56.253Z,7.30
2023-01-29T04:58:00.856Z,7.20
2023-01-29T04:59:05.066Z,6.80
2023-01-29T05:00:16.249Z,6.67
2023-01-29T05:01:19.175Z,7.03
2023-01-29T05:02:22.116Z,7.03
2023-01-29T05:03:24.986Z,7.17
2023-01-29T05:04:27.401Z,6.20
2023-01-29T05:05:28.952Z,6.47
2023-01-29T05:06:31.594Z,6.80
2023-01-29T05:07:35.265Z,7.20
2023-01-29T05:08:37.672Z,7.30
2023-01-29T05:09:39.248Z,7.00
2023-01-29T05:10:40.977Z,7.73
2023-01-29T05:11:42.673Z,7.23
2023-01-29T05:12:46.507Z,6.87
2023-01-29T05:13:48.531Z,6.77
2023-01-29T05:14:50.842Z,7.23
2023-01-29T05:15:55.877Z,7.30
2023-01-29T05:16:59.482Z,7.90
2023-01-29T05:18:02.932Z,7.73
2023-01-29T05:19:04.257Z,7.60
2023-01-29T05:20:06.108Z,6.87
2023-01-29T05:21:08.198Z,7.17
2023-01-29T05:22:10.965Z,7.10
2023-01-29T05:23:22.298Z,7.50
2023-01-29T05:24:24.712Z,6.87
2023-01-29T05:25:27.972Z,7.00
2023-01-29T05:26:47.942Z,7.00
2023-01-29T05:28:05.996Z,6.90
2023-01-29T05:29:07.325Z,6.83
2023-01-29T05:30:09.781Z,7.13
2023-01-29T05:31:11.221Z,7.97
2023-01-29T05:32:12.783Z,7.50
2023-01-29T05:33:15.336Z,7.80
2023-01-29T05:34:16.924Z,7.00
2023-01-29T05:35:18.289Z,7.60
2023-01-29T05:36:19.582Z,7.33
2023-01-29T05:37:20.996Z,7.67
2023-01-29T05:38:22.735Z,7.30
2023-01-29T05:39:24.100Z,7.57
2023-01-29T05:40:25.564Z,7.50
2023-01-29T05:41:26.856Z,7.30
2023-01-29T05:42:28.175Z,7.57
2023-01-29T05:43:29.565Z,8.30
2023-01-29T05:44:30.944Z,7.47
2023-01-29T05:45:32.624Z,7.30
2023-01-29T05:46:34.025Z,7.70
2023-01-29T05:47:35.401Z,8.10
2023-01-29T05:48:36.834Z,7.67
2023-01-29T05:49:38.848Z,8.13
2023-01-29T05:50:40.227Z,7.87
2023-01-29T05:51:41.535Z,7.87
2023-01-29T05:52:42.950Z,8.13
2023-01-29T05:53:44.326Z,7.80
2023-01-29T05:54:45.729Z,8.10
2023-01-29T05:55:47.910Z,7.97
2023-01-29T05:56:49.210Z,7.83
2023-01-29T05:57:50.563Z,8.37
2023-01-29T05:58:52.707Z,7.83
2023-01-29T05:59:54.025Z,7.73
2023-01-29T06:00:55.390Z,7.27
2023-01-29T06:01:57.324Z,8.43
2023-01-29T06:02:58.812Z,8.07
2023-01-29T06:04:00.247Z,8.30
2023-01-29T06:05:01.639Z,7.93
2023-01-29T06:06:03.045Z,8.73
2023-01-29T06:07:05.107Z,8.07
2023-01-29T06:08:06.682Z,8.27
2023-01-29T06:09:09.682Z,8.67
2023-01-29T06:10:15.809Z,7.40
2023-01-29T06:11:18.223Z,7.90
2023-01-29T06:12:19.668Z,7.90
2023-01-29T06:13:23.431Z,8.10
2023-01-29T06:14:25.023Z,8.03
2023-01-29T06:15:26.709Z,8.20
2023-01-29T06:16:28.140Z,7.93
2023-01-29T06:17:29.601Z,8.23
2023-01-29T06:18:30.949Z,7.90
2023-01-29T06:19:32.292Z,8.07
2023-01-29T06:20:33.668Z,7.90
2023-01-29T06:21:35.046Z,8.30
2023-01-29T06:22:36.415Z,7.73
2023-01-29T06:23:37.946Z,8.03
2023-01-29T06:24:41.825Z,7.53
2023-01-29T06:25:43.552Z,8.20
2023-01-29T06:26:44.912Z,7.83
2023-01-29T06:27:46.240Z,7.23
2023-01-29T06:28:50.898Z,7.80
2023-01-29T06:29:52.235Z,7.80
2023-01-29T06:30:53.540Z,7.87
2023-01-29T06:31:54.962Z,8.17
2023-01-29T06:32:58.765Z,8.60
2023-01-29T06:34:00.220Z,8.43
2023-01-29T06:35:01.570Z,8.17
2023-01-29T06:36:04.632Z,8.17
2023-01-29T06:37:05.943Z,8.30
2023-01-29T06:38:07.318Z,8.40
2023-01-29T06:39:08.698Z,7.70
2023-01-29T06:40:10.403Z,7.53
2023-01-29T06:41:12.906Z,7.70
2023-01-29T06:42:14.245Z,7.50
2023-01-29T06:43:15.658Z,7.47
2023-01-29T06:44:17.188Z,7.30
2023-01-29T06:45:18.643Z,7.20
2023-01-29T06:46:19.976Z,7.03
2023-01-29T06:47:21.355Z,8.07
2023-01-29T06:48:23.502Z,7.73
2023-01-29T06:49:24.912Z,6.73
2023-01-29T06:50:26.269Z,7.30
2023-01-29T06:51:27.580Z,7.17
2023-01-29T06:52:29.665Z,7.60
2023-01-29T06:53:31.294Z,7.00
2023-01-29T06:54:32.672Z,7.53
2023-01-29T06:55:34.427Z,8.00
2023-01-29T06:56:35.873Z,7.80
2023-01-29T06:57:37.206Z,7.17
2023-01-29T06:58:38.984Z,7.43
2023-01-29T06:59:40.330Z,7.50
2023-01-29T07:00:41.894Z,7.70
2023-01-29T07:01:44.250Z,7.53
2023-01-29T07:02:48.702Z,7.47
2023-01-29T07:03:51.104Z,6.60
2023-01-29T07:04:52.564Z,7.23
2023-01-29T07:05:53.891Z,7.20
2023-01-29T07:06:55.320Z,7.33
2023-01-29T07:07:56.713Z,6.73
2023-01-29T07:08:58.046Z,7.83
2023-01-29T07:09:59.405Z,7.40
2023-01-29T07:11:01.090Z,8.10
2023-01-29T07:12:03.612Z,8.10
2023-01-29T07:13:04.995Z,8.07
2023-01-29T07:14:06.491Z,8.00
2023-01-29T07:15:08.179Z,8.23
2023-01-29T07:16:09.706Z,8.80
2023-01-29T07:17:11.105Z,8.63
2023-01-29T07:18:12.619Z,8.33
2023-01-29T07:19:14.113Z,8.77
2023-01-29T07:20:15.899Z,8.93
2023-01-29T07:21:17.398Z,8.50
2023-01-29T07:22:18.771Z,9.33
2023-01-29T07:23:20.235Z,8.30
2023-01-29T07:24:21.724Z,10.30
2023-01-29T07:25:23.443Z,10.80
2023-01-29T07:26:25.096Z,11.73
2023-01-29T07:27:27.517Z,10.57
2023-01-29T07:28:28.958Z,9.50
2023-01-29T07:29:30.332Z,10.13
2023-01-29T07:30:32.108Z,9.53
2023-01-29T07:31:33.730Z,9.77
2023-01-29T07:32:35.171Z,8.37
2023-01-29T07:33:36.643Z,9.97
2023-01-29T07:34:38.262Z,8.90
2023-01-29T07:35:40.515Z,9.17
2023-01-29T07:36:41.949Z,9.23
2023-01-29T07:37:43.374Z,9.50
2023-01-29T07:38:48.518Z,8.97
2023-01-29T07:39:50.022Z,8.67
2023-01-29T07:40:54.828Z,8.17
2023-01-29T07:41:56.195Z,8.07
2023-01-29T07:42:58.713Z,9.17
2023-01-29T07:44:00.008Z,8.83
2023-01-29T07:45:01.356Z,8.90
2023-01-29T07:46:04.159Z,8.73
2023-01-29T07:47:05.499Z,8.67
2023-01-29T07:48:07.414Z,8.90
2023-01-29T07:49:08.990Z,9.53
2023-01-29T07:50:10.601Z,9.40
2023-01-29T07:51:11.943Z,8.87
2023-01-29T07:52:13.280Z,9.50
2023-01-29T07:53:15.022Z,9.40
2023-01-29T07:54:16.418Z,9.37
2023-01-29T07:55:17.790Z,9.20
2023-01-29T07:56:19.149Z,9.40
2023-01-29T07:57:20.441Z,8.97
2023-01-29T07:58:21.955Z,8.30
2023-01-29T07:59:23.321Z,9.10
2023-01-29T08:00:24.980Z,8.93
2023-01-29T08:01:26.467Z,8.67
2023-01-29T08:02:27.831Z,9.00
2023-01-29T08:03:29.225Z,9.20
2023-01-29T08:04:30.541Z,8.47
2023-01-29T08:05:32.109Z,8.97
2023-01-29T08:06:33.516Z,8.90
2023-01-29T08:07:35.099Z,8.50
2023-01-29T08:08:36.445Z,8.67
2023-01-29T08:09:37.906Z,9.00
2023-01-29T08:10:39.787Z,8.63
2023-01-29T08:11:41.095Z,8.13
2023-01-29T08:12:42.420Z,8.63
2023-01-29T08:13:44.047Z,8.93
2023-01-29T08:14:45.756Z,9.20
2023-01-29T08:15:47.189Z,8.63
2023-01-29T08:16:48.684Z,8.70
2023-01-29T08:17:57.769Z,9.03
2023-01-29T08:19:01.416Z,8.77
2023-01-29T08:20:02.878Z,9.27
2023-01-29T08:21:04.375Z,8.27
2023-01-29T08:22:05.972Z,9.07
2023-01-29T08:23:08.590Z,9.07
2023-01-29T08:24:10.096Z,8.57
2023-01-29T08:25:11.462Z,8.87
2023-01-29T08:26:12.828Z,9.17
2023-01-29T08:27:14.171Z,8.50
2023-01-29T08:28:15.468Z,8.70
2023-01-29T08:29:16.838Z,9.57
2023-01-29T08:30:18.664Z,8.90
2023-01-29T08:31:23.160Z,8.77
2023-01-29T08:32:24.536Z,9.13
2023-01-29T08:33:43.424Z,9.47
2023-01-29T08:34:44.856Z,9.50
2023-01-29T08:35:50.790Z,9.03
2023-01-29T08:36:53.099Z,9.47
2023-01-29T08:37:54.638Z,9.87
2023-01-29T08:38:55.975Z,9.30
2023-01-29T08:39:57.311Z,9.83
2023-01-29T08:40:58.626Z,10.03
2023-01-29T08:42:00.044Z,9.30
2023-01-29T08:43:03.092Z,8.87
2023-01-29T08:44:05.470Z,9.93
2023-01-29T08:45:07.137Z,10.10
2023-01-29T08:46:08.703Z,8.80
2023-01-29T08:47:10.129Z,9.83
2023-01-29T08:48:11.480Z,9.37
2023-01-29T08:49:12.929Z,9.63
2023-01-29T08:50:14.533Z,9.57
2023-01-29T08:51:15.907Z,9.43
2023-01-29T08:52:17.260Z,9.23
2023-01-29T08:53:24.238Z,9.67
2023-01-29T08:54:25.587Z,10.40
2023-01-29T08:55:27.462Z,10.10
2023-01-29T08:56:28.846Z,9.93
2023-01-29T08:57:30.158Z,9.53
2023-01-29T08:58:31.492Z,9.20
2023-01-29T08:59:32.816Z,9.10
2023-01-29T09:00:34.660Z,9.37
2023-01-29T09:01:36.224Z,9.23
2023-01-29T09:02:37.626Z,9.73
2023-01-29T09:03:43.708Z,10.30
2023-01-29T09:04:45.018Z,9.40
2023-01-29T09:05:46.763Z,9.93
2023-01-29T09:06:48.074Z,9.93
2023-01-29T09:07:49.389Z,9.67
2023-01-29T09:08:50.778Z,10.07
2023-01-29T09:09:52.130Z,9.73
2023-01-29T09:10:53.474Z,9.60
2023-01-29T09:11:54.783Z,9.53
2023-01-29T09:12:56.101Z,9.63
2023-01-29T09:13:57.419Z,9.80
2023-01-29T09:14:58.818Z,9.57
2023-01-29T09:16:03.970Z,9.60
2023-01-29T09:17:05.282Z,9.33
2023-01-29T09:18:06.710Z,9.27
2023-01-29T09:19:08.337Z,9.40
2023-01-29T09:20:10.387Z,9.53
2023-01-29T09:21:11.711Z,9.70
2023-01-29T09:22:13.109Z,9.67
2023-01-29T09:23:14.419Z,9.50
2023-01-29T09:24:15.770Z,9.10
2023-01-29T09:25:17.452Z,9.33
2023-01-29T09:26:19.055Z,9.93
2023-01-29T09:27:20.423Z,9.17
2023-01-29T09:28:21.731Z,9.13
2023-01-29T09:29:23.078Z,10.17
2023-01-29T09:30:24.379Z,9.10
2023-01-29T09:31:25.738Z,11.23
2023-01-29T09:32:56.143Z,10.37
2023-01-29T09:33:51.563Z,10.27
2023-01-29T09:34:52.883Z,9.93
2023-01-29T09:35:54.322Z,10.10
2023-01-29T09:36:55.652Z,9.73
2023-01-29T09:37:57.477Z,10.93
2023-01-29T09:38:58.793Z,9.80
2023-01-29T09:40:00.152Z,9.93
2023-01-29T09:41:01.510Z,9.90
2023-01-29T09:42:21.571Z,11.03
2023-01-29T09:43:29.007Z,9.43
2023-01-29T09:44:45.758Z,8.63
2023-01-29T09:45:53.186Z,8.10
2023-01-29T09:46:55.855Z,8.90
2023-01-29T09:47:58.958Z,9.37
2023-01-29T09:49:23.358Z,8.23
2023-01-29T09:50:28.270Z,9.20
2023-01-29T09:51:39.743Z,8.50
2023-01-29T09:52:45.045Z,8.63
2023-01-29T09:53:49.542Z,8.67
2023-01-29T09:54:50.864Z,8.23
2023-01-29T09:55:59.325Z,8.80
2023-01-29T09:57:00.695Z,8.57
2023-01-29T09:58:11.706Z,8.30
2023-01-29T09:59:14.063Z,8.97
2023-01-29T10:00:18.331Z,8.77
2023-01-29T10:01:52.830Z,8.87
2023-01-29T10:02:54.249Z,8.43
2023-01-29T10:03:58.303Z,8.20
2023-01-29T10:05:15.471Z,7.93
2023-01-29T10:06:17.084Z,9.47
2023-01-29T10:07:30.450Z,9.40
2023-01-29T10:08:34.871Z,8.97
2023-01-29T10:09:39.368Z,8.33
2023-01-29T10:10:51.085Z,8.93
2023-01-29T10:11:58.179Z,9.90
2023-01-29T10:13:10.139Z,10.03
2023-01-29T10:14:15.662Z,9.70
2023-01-29T10:15:24.108Z,9.97
2023-01-29T10:16:35.572Z,9.83
2023-01-29T10:17:50.454Z,10.40
2023-01-29T10:18:58.764Z,11.00
2023-01-29T10:20:00.172Z,10.90
2023-01-29T10:21:20.382Z,10.27
2023-01-29T10:22:33.929Z,9.70
2023-01-29T10:23:40.549Z,10.97
2023-01-29T10:24:45.858Z,10.90
2023-01-29T10:25:47.839Z,10.33
2023-01-29T10:26:50.524Z,10.20
2023-01-29T10:27:53.046Z,10.50
2023-01-29T10:28:55.428Z,9.67
2023-01-29T10:29:56.926Z,11.70
2023-01-29T10:31:00.552Z,10.97
2023-01-29T10:32:04.992Z,10.70
2023-01-29T10:33:07.193Z,11.03
2023-01-29T10:34:11.588Z,10.90
2023-01-29T10:35:21.420Z,12.40
2023-01-29T10:36:23.605Z,11.30
2023-01-29T10:37:36.634Z,10.87
2023-01-29T10:38:44.507Z,11.47
2023-01-29T10:39:45.945Z,11.37
2023-01-29T10:40:53.085Z,11.40
2023-01-29T10:42:05.662Z,11.23
2023-01-29T10:43:14.581Z,10.93
2023-01-29T10:44:24.866Z,10.90
2023-01-29T10:45:31.639Z,11.03
2023-01-29T10:46:42.069Z,10.43
2023-01-29T10:48:06.070Z,11.20
2023-01-29T10:49:13.692Z,10.90
2023-01-29T10:50:28.004Z,10.70
2023-01-29T10:51:41.518Z,10.10
2023-01-29T10:52:57.224Z,10.50
2023-01-29T10:54:10.735Z,10.33
2023-01-29T10:55:48.247Z,10.77
2023-01-29T10:57:06.532Z,10.80
2023-01-29T10:58:16.581Z,11.30
2023-01-29T10:59:38.286Z,10.63
2023-01-29T11:00:40.357Z,158.27
2023-01-29T11:01:45.703Z,148.87
2023-01-29T11:02:48.650Z,87.57
2023-01-29T11:03:59.399Z,109.83
2023-01-29T11:05:00.742Z,89.70
2023-01-29T11:06:12.841Z,68.67
2023-01-29T11:07:15.217Z,17.50
2023-01-29T11:08:19.604Z,12.00
2023-01-29T11:09:42.759Z,12.33
2023-01-29T11:10:52.785Z,11.50
2023-01-29T11:11:57.577Z,10.07
2023-01-29T11:12:59.345Z,10.70
2023-01-29T11:14:06.945Z,11.60
2023-01-29T11:15:30.704Z,11.33
2023-01-29T11:16:33.355Z,11.03
2023-01-29T11:17:34.790Z,10.00
2023-01-29T11:19:08.803Z,9.87
2023-01-29T11:20:26.532Z,10.63
2023-01-29T11:21:28.991Z,10.83
2023-01-29T11:22:30.690Z,11.13
2023-01-29T11:23:33.735Z,10.87
2023-01-29T11:24:35.299Z,10.90
2023-01-29T11:25:36.706Z,11.60
2023-01-29T11:26:39.566Z,10.87
2023-01-29T11:27:44.231Z,10.83
2023-01-29T11:28:46.554Z,11.13
2023-01-29T11:29:48.267Z,10.93
2023-01-29T11:30:50.841Z,10.60
2023-01-29T11:31:54.768Z,11.67
2023-01-29T11:33:05.260Z,10.97
2023-01-29T11:34:13.700Z,11.20
2023-01-29T11:35:15.341Z,10.20
2023-01-29T11:36:28.547Z,11.20
2023-01-29T11:37:36.446Z,10.73
2023-01-29T11:38:37.899Z,10.53
2023-01-29T11:39:43.354Z,11.30
2023-01-29T11:40:44.927Z,11.13
2023-01-29T11:41:50.594Z,10.83
2023-01-29T11:42:53.707Z,11.63
2023-01-29T11:43:59.192Z,11.03
2023-01-29T11:45:00.735Z,11.20
2023-01-29T11:46:06.833Z,10.43
2023-01-29T11:47:14.531Z,10.30
2023-01-29T11:48:20.442Z,10.77
2023-01-29T11:49:33.054Z,10.30
2023-01-29T11:50:35.539Z,10.60
2023-01-29T11:51:38.387Z,10.97
2023-01-29T11:52:42.024Z,9.87
2023-01-29T11:53:45.095Z,10.67
2023-01-29T11:55:22.000Z,10.67
2023-01-29T11:56:32.638Z,12.07
2023-01-29T11:57:35.453Z,11.53
2023-01-29T11:58:36.972Z,10.90
2023-01-29T11:59:44.053Z,10.90
2023-01-29T12:00:47.868Z,10.90
2023-01-29T12:01:49.199Z,11.50
2023-01-29T12:03:09.199Z,10.97
2023-01-29T12:04:21.588Z,10.97
2023-01-29T12:05:24.244Z,10.90
2023-01-29T12:06:33.972Z,10.47
2023-01-29T12:07:40.913Z,11.33
2023-01-29T12:08:42.324Z,11.10
2023-01-29T12:09:54.581Z,10.97
2023-01-29T12:11:07.403Z,11.03
2023-01-29T12:12:17.001Z,10.37
2023-01-29T12:13:21.399Z,10.47
2023-01-29T12:14:34.079Z,9.87
2023-01-29T12:15:36.100Z,9.63
2023-01-29T12:16:47.182Z,9.63
2023-01-29T12:17:52.266Z,10.57
2023-01-29T12:19:01.125Z,9.87
2023-01-29T12:20:06.236Z,10.23
2023-01-29T12:21:15.838Z,10.33
2023-01-29T12:22:20.482Z,10.40
2023-01-29T12:23:31.047Z,9.93
2023-01-29T12:24:38.326Z,10.77
2023-01-29T12:25:47.798Z,9.90
2023-01-29T12:26:57.945Z,11.00
2023-01-29T12:28:25.897Z,10.30
2023-01-29T12:29:49.363Z,10.30
2023-01-29T12:31:01.216Z,11.17
2023-01-29T12:32:02.572Z,10.70
2023-01-29T12:33:14.918Z,10.30
2023-01-29T12:34:21.183Z,10.17
2023-01-29T12:35:24.911Z,10.37
2023-01-29T12:36:36.722Z,10.47
2023-01-29T12:37:43.523Z,10.73
2023-01-29T12:38:45.409Z,9.73
2023-01-29T12:39:46.941Z,10.73
2023-01-29T12:40:57.584Z,11.10
2023-01-29T12:42:03.299Z,11.00
2023-01-29T12:43:06.874Z,10.63
2023-01-29T12:44:19.428Z,11.27
2023-01-29T12:45:24.961Z,10.37
2023-01-29T12:46:27.935Z,10.93
2023-01-29T12:47:29.278Z,10.37
2023-01-29T12:48:32.940Z,10.83
2023-01-29T12:49:38.052Z,10.57
2023-01-29T12:50:39.741Z,10.40
2023-01-29T12:51:44.061Z,10.37
2023-01-29T12:52:53.707Z,9.77
2023-01-29T12:53:57.370Z,9.83
2023-01-29T12:55:01.727Z,10.13
2023-01-29T12:56:06.040Z,9.90
2023-01-29T12:57:18.619Z,10.67
2023-01-29T12:58:28.586Z,9.77
2023-01-29T12:59:36.920Z,10.40
2023-01-29T13:00:40.212Z,10.50
2023-01-29T13:02:02.673Z,10.23
2023-01-29T13:03:16.186Z,10.10
2023-01-29T13:04:28.485Z,11.03
2023-01-29T13:05:39.065Z,10.47
2023-01-29T13:06:42.614Z,10.50
2023-01-29T13:07:47.812Z,10.97
2023-01-29T13:08:54.744Z,11.30
2023-01-29T13:09:59.432Z,10.90
2023-01-29T13:11:02.815Z,10.93
2023-01-29T13:12:07.496Z,11.80
2023-01-29T13:13:18.882Z,11.53
2023-01-29T13:14:25.441Z,10.70
2023-01-29T13:15:29.949Z,10.67
2023-01-29T13:16:36.355Z,12.80
2023-01-29T13:17:40.468Z,11.60
2023-01-29T13:18:42.337Z,11.20
2023-01-29T13:19:47.585Z,11.13
2023-01-29T13:20:49.586Z,10.77
2023-01-29T13:21:52.098Z,9.83
2023-01-29T13:22:54.686Z,9.90
2023-01-29T13:24:09.360Z,9.70
2023-01-29T13:25:17.738Z,9.90
2023-01-29T13:26:20.031Z,10.57
2023-01-29T13:27:31.735Z,9.83
2023-01-29T13:28:33.249Z,10.30
2023-01-29T13:29:34.952Z,9.83
2023-01-29T13:30:36.868Z,9.07
2023-01-29T13:31:40.663Z,9.03
2023-01-29T13:32:42.119Z,9.80
2023-01-29T13:33:43.889Z,10.13
2023-01-29T13:34:46.432Z,9.50
2023-01-29T13:35:48.710Z,10.03
2023-01-29T13:36:55.070Z,10.33
2023-01-29T13:37:56.490Z,9.83
2023-01-29T13:39:03.416Z,10.13
2023-01-29T13:40:06.660Z,9.37
2023-01-29T13:41:10.673Z,9.80
2023-01-29T13:42:17.355Z,9.80
2023-01-29T13:43:20.309Z,9.17
2023-01-29T13:44:34.675Z,8.73
2023-01-29T13:45:44.027Z,9.33
2023-01-29T13:46:49.219Z,9.50
2023-01-29T13:47:51.434Z,9.80
2023-01-29T13:48:55.082Z,9.60
2023-01-29T13:50:07.612Z,9.53
2023-01-29T13:51:16.907Z,9.10
2023-01-29T13:52:25.877Z,9.53
2023-01-29T13:53:28.842Z,10.00
2023-01-29T13:54:30.576Z,9.50
2023-01-29T13:55:33.291Z,10.00
2023-01-29T13:56:34.603Z,9.73
2023-01-29T13:57:39.084Z,9.23
2023-01-29T13:58:43.289Z,9.50
2023-01-29T13:59:53.079Z,9.47
2023-01-29T14:00:54.600Z,8.93
2023-01-29T14:02:00.246Z,8.87
2023-01-29T14:03:01.597Z,9.20
2023-01-29T14:04:14.836Z,9.00
2023-01-29T14:05:33.821Z,9.77
2023-01-29T14:06:36.607Z,9.17
2023-01-29T14:07:39.043Z,9.87
2023-01-29T14:08:44.512Z,10.13
2023-01-29T14:09:48.820Z,10.00
2023-01-29T14:11:10.123Z,9.40
2023-01-29T14:12:23.412Z,9.13
2023-01-29T14:13:26.594Z,8.80
2023-01-29T14:14:46.488Z,9.50
2023-01-29T14:15:57.119Z,9.47
2023-01-29T14:17:01.706Z,9.47
2023-01-29T14:18:05.279Z,10.07
2023-01-29T14:19:06.714Z,9.50
2023-01-29T14:20:18.894Z,9.60
2023-01-29T14:21:21.302Z,9.83
2023-01-29T14:22:24.379Z,8.80
2023-01-29T14:23:46.523Z,8.73
2023-01-29T14:24:48.083Z,9.37
2023-01-29T14:25:49.767Z,9.77
2023-01-29T14:26:54.178Z,9.50
2023-01-29T14:27:56.617Z,9.87
2023-01-29T14:29:34.654Z,9.03
2023-01-29T14:30:36.448Z,9.50